Time;durP1;ratioP1;P1;durP2;ratioP2;P2;SDS_P1;SDS_P2;PMS_P1;PMS_P2;Temp;Humidity;BMP_temperature;BMP_pressure;BME280_temperature;BME280_humidity;BME280_pressure;Samples;Min_cycle;Max_cycle;Signal;HPM_P1;HPM_P2
2023/07/08 00:00:25;;;;;;;6.72;2.35;;;18.70;99.90;;;;;;5073737;28;20055;-68
2023/07/08 00:02:51;;;;;;;5.28;2.70;;;18.70;99.90;;;;;;5073141;28;20501;-68
2023/07/08 00:05:20;;;;;;;7.88;2.88;;;18.70;99.90;;;;;;5080496;28;20052;-68
2023/07/08 00:07:47;;;;;;;8.02;2.72;;;18.70;99.90;;;;;;5079989;28;20127;-68
2023/07/08 00:10:15;;;;;;;4.35;2.28;;;18.60;99.90;;;;;;5054935;28;20379;-68
2023/07/08 00:12:43;;;;;;;5.80;2.72;;;18.60;99.90;;;;;;5073015;28;20123;-68
2023/07/08 00:15:10;;;;;;;4.55;2.05;;;18.60;99.90;;;;;;5069927;28;20520;-68
2023/07/08 00:17:36;;;;;;;3.65;2.00;;;18.50;99.90;;;;;;5073330;28;20040;-68
2023/07/08 00:20:09;;;;;;;6.53;2.70;;;18.50;99.90;;;;;;5079326;28;20041;-68
2023/07/08 00:22:36;;;;;;;5.25;2.80;;;18.50;99.90;;;;;;5074360;28;20215;-68
2023/07/08 00:25:02;;;;;;;5.72;2.33;;;18.50;99.90;;;;;;5049668;28;20037;-68
2023/07/08 00:27:28;;;;;;;6.57;2.53;;;18.50;99.90;;;;;;5067986;28;20036;-68
2023/07/08 00:29:53;;;;;;;4.43;2.53;;;18.50;99.90;;;;;;5078129;28;20044;-70
2023/07/08 00:32:19;;;;;;;6.70;2.92;;;18.40;99.90;;;;;;5060767;28;20043;-69
2023/07/08 00:34:45;;;;;;;4.55;2.65;;;18.40;99.90;;;;;;5078001;28;20071;-69
2023/07/08 00:37:12;;;;;;;4.63;2.63;;;18.40;99.90;;;;;;5074613;28;20451;-68
2023/07/08 00:39:38;;;;;;;5.35;2.40;;;18.40;99.90;;;;;;5054970;28;20153;-69
2023/07/08 00:42:19;;;;;;;5.25;2.28;;;18.40;99.90;;;;;;5057599;28;20032;-69
2023/07/08 00:44:45;;;;;;;7.28;2.38;;;18.40;99.90;;;;;;5072412;28;20101;-68
2023/07/08 00:47:14;;;;;;;7.53;2.90;;;18.30;99.90;;;;;;5046407;28;20052;-68
2023/07/08 00:49:48;;;;;;;5.88;2.80;;;18.30;99.90;;;;;;5080772;28;20044;-69
2023/07/08 00:52:21;;;;;;;4.18;2.63;;;18.30;99.90;;;;;;5078297;28;20116;-69
2023/07/08 00:54:58;;;;;;;4.55;2.35;;;18.30;99.90;;;;;;5066932;28;20044;-69
2023/07/08 00:57:29;;;;;;;6.40;2.75;;;18.20;99.90;;;;;;5071208;28;20056;-69
2023/07/08 00:59:54;;;;;;;5.38;3.10;;;18.20;99.90;;;;;;5055181;28;20044;-69
2023/07/08 01:02:24;;;;;;;6.65;2.80;;;18.20;99.90;;;;;;5041325;28;20417;-68
2023/07/08 01:05:04;;;;;;;4.00;2.58;;;18.20;99.90;;;;;;5077915;28;20435;-68
2023/07/08 01:07:33;;;;;;;4.20;2.50;;;18.20;99.90;;;;;;5067142;28;20362;-68
2023/07/08 01:10:04;;;;;;;5.40;2.13;;;18.10;99.90;;;;;;5052822;28;20063;-68
2023/07/08 01:12:36;;;;;;;5.13;2.53;;;18.10;99.90;;;;;;5077091;28;20036;-68
2023/07/08 01:15:03;;;;;;;5.18;2.50;;;18.10;99.90;;;;;;5079154;28;20048;-69
2023/07/08 01:17:32;;;;;;;4.25;2.58;;;18.10;99.90;;;;;;5072070;28;20033;-69
2023/07/08 01:19:59;;;;;;;5.82;2.90;;;18.00;99.90;;;;;;5078227;28;20202;-69
2023/07/08 01:22:32;;;;;;;5.28;2.53;;;18.00;99.90;;;;;;5052623;28;20150;-69
2023/07/08 01:25:03;;;;;;;4.57;2.33;;;18.00;99.90;;;;;;5078922;28;20394;-69
2023/07/08 01:27:32;;;;;;;7.68;2.72;;;18.00;99.90;;;;;;5054899;28;20560;-69
2023/07/08 01:29:59;;;;;;;6.15;2.53;;;18.00;99.90;;;;;;5065014;28;20123;-69
2023/07/08 01:32:25;;;;;;;5.60;2.65;;;18.00;99.90;;;;;;5078374;28;20040;-69
2023/07/08 01:35:01;;;;;;;;;;;17.90;99.90;;;;;;5073142;28;20040;-69
2023/07/08 01:37:36;;;;;;;9.93;3.03;;;17.90;99.90;;;;;;5072371;28;20020;-69
2023/07/08 01:40:36;;;;;;;4.78;2.42;;;17.90;99.90;;;;;;5075946;28;20060;-69
2023/07/08 01:43:03;;;;;;;4.63;2.95;;;17.90;99.90;;;;;;5030438;28;20040;-69
2023/07/08 01:45:39;;;;;;;5.07;2.83;;;17.80;99.90;;;;;;5079766;28;20071;-69
2023/07/08 01:48:10;;;;;;;6.55;2.90;;;17.80;99.90;;;;;;5051840;28;20089;-69
2023/07/08 01:50:42;;;;;;;5.72;3.05;;;17.80;99.90;;;;;;5063900;28;20040;-69
2023/07/08 01:53:16;;;;;;;6.43;2.85;;;17.80;99.90;;;;;;5081180;28;20043;-69
2023/07/08 01:55:42;;;;;;;5.82;2.63;;;17.80;99.90;;;;;;5064384;28;20033;-69
2023/07/08 01:58:08;;;;;;;4.28;2.50;;;17.80;99.90;;;;;;5072570;28;20532;-69
2023/07/08 02:00:33;;;;;;;5.60;2.88;;;17.70;99.90;;;;;;5061508;28;20086;-69
2023/07/08 02:02:59;;;;;;;5.65;2.90;;;17.70;99.90;;;;;;5058831;28;20048;-69
2023/07/08 02:05:25;;;;;;;5.72;2.78;;;17.70;99.90;;;;;;5071211;28;20052;-70
2023/07/08 02:07:51;;;;;;;4.70;2.70;;;17.70;99.90;;;;;;5074740;28;20063;-69
2023/07/08 02:10:17;;;;;;;5.10;2.83;;;17.70;99.90;;;;;;5062861;28;20481;-69
2023/07/08 02:12:43;;;;;;;8.48;3.10;;;17.70;99.90;;;;;;5067009;28;20051;-69
2023/07/08 02:15:09;;;;;;;7.30;2.60;;;17.70;99.90;;;;;;5055258;28;20052;-69
2023/07/08 02:17:35;;;;;;;5.22;2.55;;;17.60;99.90;;;;;;5062119;28;20319;-69
2023/07/08 02:20:01;;;;;;;7.43;2.97;;;17.60;99.90;;;;;;5051951;28;20076;-69
2023/07/08 02:22:27;;;;;;;5.00;3.03;;;17.60;99.90;;;;;;5080793;28;20505;-69
2023/07/08 02:24:53;;;;;;;5.35;2.63;;;17.60;99.90;;;;;;5082382;28;20036;-69
2023/07/08 02:27:18;;;;;;;9.70;3.35;;;17.60;99.90;;;;;;5070461;28;20354;-69
2023/07/08 02:29:44;;;;;;;7.25;2.95;;;17.60;99.90;;;;;;5082063;28;20446;-69
2023/07/08 02:32:10;;;;;;;7.88;3.45;;;17.60;99.90;;;;;;5068434;28;20045;-68
2023/07/08 02:34:37;;;;;;;8.60;2.75;;;17.60;99.90;;;;;;5086157;28;20036;-69
2023/07/08 02:37:03;;;;;;;6.15;2.88;;;17.50;99.90;;;;;;5057949;28;20075;-68
2023/07/08 02:39:28;;;;;;;6.22;3.53;;;17.50;99.90;;;;;;5072453;28;20382;-69
2023/07/08 02:41:54;;;;;;;5.90;3.03;;;17.50;99.90;;;;;;5075880;28;20043;-69
2023/07/08 02:44:20;;;;;;;6.63;3.00;;;17.50;99.90;;;;;;5051316;28;20116;-68
2023/07/08 02:46:45;;;;;;;5.68;2.85;;;17.50;99.90;;;;;;5082031;28;20044;-69
2023/07/08 02:49:11;;;;;;;6.07;3.00;;;17.50;99.90;;;;;;5058625;28;20050;-69
2023/07/08 02:51:37;;;;;;;5.53;3.47;;;17.40;99.90;;;;;;5074076;28;20504;-69
2023/07/08 02:54:03;;;;;;;7.43;3.45;;;17.50;99.90;;;;;;5056984;28;20072;-69
2023/07/08 02:56:29;;;;;;;5.63;3.15;;;17.40;99.90;;;;;;5069451;28;20321;-69
2023/07/08 02:58:54;;;;;;;7.05;2.88;;;17.40;99.90;;;;;;5052874;28;20408;-69
2023/07/08 03:01:20;;;;;;;6.28;3.30;;;17.40;99.90;;;;;;5055022;28;20082;-69
2023/07/08 03:03:47;;;;;;;6.03;3.25;;;17.40;99.90;;;;;;5072520;28;20040;-69
2023/07/08 03:06:13;;;;;;;8.02;3.28;;;17.40;99.90;;;;;;5071701;28;20064;-69
2023/07/08 03:08:39;;;;;;;7.22;3.33;;;17.40;99.90;;;;;;5067909;28;20044;-69
2023/07/08 03:11:06;;;;;;;;;;;17.30;99.90;;;;;;5076252;28;20055;-68
2023/07/08 03:13:33;;;;;;;7.40;3.53;;;17.30;99.90;;;;;;5069380;28;20011;-69
2023/07/08 03:16:00;;;;;;;6.03;3.20;;;17.30;99.90;;;;;;5067291;28;20584;-68
2023/07/08 03:18:26;;;;;;;9.10;3.33;;;17.30;99.90;;;;;;5069472;28;20036;-69
2023/07/08 03:20:55;;;;;;;6.20;3.15;;;17.30;99.90;;;;;;5069086;28;20102;-68
2023/07/08 03:23:25;;;;;;;11.00;3.50;;;17.30;99.90;;;;;;5054709;28;20135;-68
2023/07/08 03:25:51;;;;;;;6.93;3.33;;;17.30;99.90;;;;;;5083549;28;20116;-68
2023/07/08 03:28:17;;;;;;;5.80;3.15;;;17.20;99.90;;;;;;5060997;28;20536;-68
2023/07/08 03:30:44;;;;;;;5.18;3.30;;;17.20;99.90;;;;;;5079807;28;20044;-69
2023/07/08 03:33:11;;;;;;;6.32;3.63;;;17.20;99.90;;;;;;5062175;28;20118;-69
2023/07/08 03:35:38;;;;;;;6.65;2.90;;;17.20;99.90;;;;;;5073712;28;20497;-69
2023/07/08 03:38:04;;;;;;;5.47;3.05;;;17.20;99.90;;;;;;5070073;28;20045;-69
2023/07/08 03:40:30;;;;;;;6.30;3.00;;;17.20;99.90;;;;;;5056004;28;20082;-69
2023/07/08 03:42:56;;;;;;;4.88;2.83;;;17.10;99.90;;;;;;5068988;28;20044;-69
2023/07/08 03:45:22;;;;;;;7.35;3.55;;;17.10;99.90;;;;;;5050344;28;20043;-69
2023/07/08 03:47:47;;;;;;;6.90;2.83;;;17.10;99.90;;;;;;5080093;28;20474;-69
2023/07/08 03:50:24;;;;;;;4.80;3.28;;;17.10;99.90;;;;;;5070683;28;20032;-69
2023/07/08 03:52:52;;;;;;;5.80;3.20;;;17.10;99.90;;;;;;5071460;28;20040;-69
2023/07/08 03:55:18;;;;;;;5.20;2.90;;;17.10;99.90;;;;;;5072787;28;20051;-69
2023/07/08 03:57:44;;;;;;;8.02;3.03;;;17.00;99.90;;;;;;5079984;28;20044;-69
2023/07/08 04:00:11;;;;;;;6.38;3.50;;;17.10;99.90;;;;;;5050223;28;20058;-69
2023/07/08 04:02:39;;;;;;;6.93;3.60;;;17.10;99.90;;;;;;5052812;28;20102;-69
2023/07/08 04:05:05;;;;;;;5.43;3.45;;;17.10;99.90;;;;;;5080710;28;20046;-69
2023/07/08 04:07:32;;;;;;;8.48;4.05;;;17.00;99.90;;;;;;5075479;28;20430;-69
2023/07/08 04:09:57;;;;;;;6.35;3.90;;;17.00;99.90;;;;;;5075255;28;20186;-69
2023/07/08 04:12:24;;;;;;;8.20;3.63;;;17.00;99.90;;;;;;5075458;28;20040;-69
2023/07/08 04:14:50;;;;;;;5.72;3.60;;;17.00;99.90;;;;;;5071147;28;20151;-69
2023/07/08 04:17:18;;;;;;;7.38;3.58;;;17.00;99.90;;;;;;5082652;28;20068;-69
2023/07/08 04:19:43;;;;;;;6.60;3.80;;;17.00;99.90;;;;;;5074492;28;20048;-68
2023/07/08 04:22:10;;;;;;;6.28;3.33;;;17.00;99.90;;;;;;5070038;28;20039;-69
2023/07/08 04:24:36;;;;;;;6.07;3.38;;;17.00;99.90;;;;;;5050917;28;20048;-69
2023/07/08 04:27:02;;;;;;;7.20;3.25;;;17.00;99.90;;;;;;5054084;28;20067;-69
2023/07/08 04:29:28;;;;;;;8.93;3.70;;;17.00;99.90;;;;;;5056510;28;20429;-69
2023/07/08 04:31:54;;;;;;;5.82;3.30;;;17.00;99.90;;;;;;5068140;28;20100;-69
2023/07/08 04:34:20;;;;;;;5.25;2.85;;;17.00;99.90;;;;;;5067754;28;20326;-68
2023/07/08 04:36:46;;;;;;;9.57;3.80;;;17.00;99.90;;;;;;5065887;28;20033;-69
2023/07/08 04:39:13;;;;;;;5.13;3.17;;;17.10;99.90;;;;;;5052055;28;20049;-69
2023/07/08 04:41:40;;;;;;;9.80;3.92;;;17.10;99.90;;;;;;5061318;28;20485;-69
2023/07/08 04:44:10;;;;;;;6.47;3.58;;;17.10;99.90;;;;;;5073577;28;20093;-69
2023/07/08 04:46:40;;;;;;;5.93;3.35;;;17.10;99.90;;;;;;5068138;28;20498;-69
2023/07/08 04:49:09;;;;;;;5.57;3.30;;;17.10;99.90;;;;;;5056641;28;20136;-69
2023/07/08 04:51:36;;;;;;;5.72;2.90;;;17.20;99.90;;;;;;5073030;28;20071;-69
2023/07/08 04:54:02;;;;;;;6.15;3.50;;;17.20;99.90;;;;;;5050844;28;20036;-69
2023/07/08 04:56:42;;;;;;;7.18;3.53;;;17.20;99.90;;;;;;5078912;28;20497;-69
2023/07/08 04:59:10;;;;;;;7.13;3.88;;;17.20;99.90;;;;;;5083034;28;20044;-69
2023/07/08 05:01:36;;;;;;;6.35;3.58;;;17.30;99.90;;;;;;5074872;28;20090;-69
2023/07/08 05:04:02;;;;;;;5.45;3.20;;;17.30;99.90;;;;;;5074087;28;20040;-69
2023/07/08 05:06:28;;;;;;;7.55;3.92;;;17.30;99.90;;;;;;5067679;28;20259;-68
2023/07/08 05:08:54;;;;;;;5.63;3.47;;;17.40;99.90;;;;;;5073558;28;20067;-69
2023/07/08 05:11:25;;;;;;;13.70;3.88;;;17.40;99.90;;;;;;5114380;22;20043;-80
2023/07/08 05:13:51;;;;;;;8.60;3.80;;;17.40;99.90;;;;;;5072044;28;20032;-81
2023/07/08 05:16:17;;;;;;;4.93;3.13;;;17.50;99.90;;;;;;5071671;28;20043;-81
2023/07/08 05:18:43;;;;;;;5.88;2.90;;;17.50;99.90;;;;;;5064589;28;20039;-81
2023/07/08 05:21:09;;;;;;;8.18;3.30;;;17.50;99.90;;;;;;5064112;28;20150;-81
2023/07/08 05:23:35;;;;;;;10.48;3.60;;;17.60;99.90;;;;;;5073167;28;20043;-81
2023/07/08 05:26:02;;;;;;;6.10;2.90;;;17.60;99.90;;;;;;5066924;28;20110;-82
2023/07/08 05:28:28;;;;;;;7.57;3.28;;;17.60;99.90;;;;;;5073398;28;20050;-82
2023/07/08 05:30:57;;;;;;;14.25;3.60;;;17.70;99.90;;;;;;5071154;28;20130;-82
2023/07/08 05:33:28;;;;;;;5.60;3.22;;;17.80;99.90;;;;;;5061663;28;20043;-82
2023/07/08 05:35:54;;;;;;;7.88;3.22;;;17.80;99.90;;;;;;5058575;28;20199;-82
2023/07/08 05:38:20;;;;;;;5.72;3.13;;;17.90;99.90;;;;;;5072715;28;20118;-83
2023/07/08 05:40:50;;;;;;;7.03;3.58;;;17.90;99.90;;;;;;5072060;28;20040;-81
2023/07/08 05:43:17;;;;;;;6.43;2.70;;;17.90;99.90;;;;;;5074787;28;20047;-80
2023/07/08 05:45:43;;;;;;;4.80;2.72;;;18.00;99.90;;;;;;5071418;28;20036;-81
2023/07/08 05:48:09;;;;;;;10.93;3.20;;;18.10;99.90;;;;;;5081916;28;20043;-82
2023/07/08 05:50:35;;;;;;;7.85;3.35;;;18.20;99.90;;;;;;5073238;28;20046;-81
2023/07/08 05:53:01;;;;;;;4.07;2.67;;;18.20;99.90;;;;;;5072410;28;20059;-82
2023/07/08 05:55:26;;;;;;;5.32;2.42;;;18.20;99.90;;;;;;5054829;28;20089;-81
2023/07/08 05:57:52;;;;;;;5.90;2.88;;;18.30;99.90;;;;;;5065678;28;20043;-79
2023/07/08 06:00:18;;;;;;;5.25;2.88;;;18.30;99.90;;;;;;5071577;28;20459;-81
2023/07/08 06:02:43;;;;;;;5.70;3.35;;;18.40;99.90;;;;;;5062935;28;20425;-81
2023/07/08 06:05:09;;;;;;;5.68;3.17;;;18.50;99.90;;;;;;5063219;28;20079;-82
2023/07/08 06:07:35;;;;;;;4.65;2.45;;;18.50;99.90;;;;;;5072540;28;20032;-82
2023/07/08 06:10:01;;;;;;;8.68;3.03;;;18.60;99.90;;;;;;5059418;28;20123;-84
2023/07/08 06:12:27;;;;;;;4.43;3.03;;;18.60;99.90;;;;;;5068330;28;20099;-83
2023/07/08 06:14:53;;;;;;;6.30;3.05;;;18.70;99.90;;;;;;5064981;28;20092;-83
2023/07/08 06:17:19;;;;;;;8.90;2.97;;;18.70;99.90;;;;;;5072202;28;20040;-81
2023/07/08 06:19:44;;;;;;;6.40;2.83;;;18.80;99.90;;;;;;5074060;28;20036;-82
2023/07/08 06:22:10;;;;;;;5.72;3.00;;;18.90;99.90;;;;;;5064311;28;20135;-83
2023/07/08 06:24:36;;;;;;;5.18;2.92;;;18.90;99.90;;;;;;5073516;28;20039;-81
2023/07/08 06:27:02;;;;;;;5.45;3.00;;;19.00;99.90;;;;;;5072203;28;20058;-81
2023/07/08 06:29:27;;;;;;;5.35;3.15;;;19.10;99.90;;;;;;5073453;28;20044;-81
2023/07/08 06:31:53;;;;;;;7.30;2.58;;;19.10;99.90;;;;;;5077126;28;20514;-82
2023/07/08 06:34:22;;;;;;;5.15;2.65;;;19.20;99.90;;;;;;5076037;28;20039;-81
2023/07/08 06:36:48;;;;;;;5.13;2.53;;;19.30;99.90;;;;;;5076920;28;20035;-82
2023/07/08 06:39:13;;;;;;;5.18;2.70;;;19.30;99.90;;;;;;5070174;28;20489;-81
2023/07/08 06:41:39;;;;;;;7.85;2.60;;;19.40;99.90;;;;;;5071726;28;20032;-83
2023/07/08 06:44:05;;;;;;;3.92;2.53;;;19.50;99.90;;;;;;5076500;28;20031;-81
2023/07/08 06:46:31;;;;;;;4.63;2.17;;;19.60;99.90;;;;;;5077252;28;20495;-81
2023/07/08 06:48:56;;;;;;;6.43;2.88;;;19.60;99.90;;;;;;5067616;28;20485;-79
2023/07/08 06:51:22;;;;;;;6.15;2.25;;;19.70;99.90;;;;;;5053466;28;20403;-82
2023/07/08 06:53:48;;;;;;;3.20;2.15;;;19.80;99.90;;;;;;5037471;28;20055;-81
2023/07/08 06:56:14;;;;;;;4.95;2.40;;;19.80;99.90;;;;;;5039133;28;20407;-82
2023/07/08 06:58:39;;;;;;;3.38;2.00;;;19.90;99.90;;;;;;5048166;28;20141;-80
2023/07/08 07:01:05;;;;;;;4.97;2.60;;;20.00;99.90;;;;;;5048496;28;20040;-82
2023/07/08 07:03:31;;;;;;;3.45;2.03;;;20.10;99.90;;;;;;5047536;28;20032;-79
2023/07/08 07:05:56;;;;;;;4.93;2.38;;;20.20;99.90;;;;;;5040379;28;20094;-79
2023/07/08 07:08:22;;;;;;;7.88;2.97;;;20.20;99.90;;;;;;5044291;28;20073;-79
2023/07/08 07:10:48;;;;;;;4.00;2.22;;;20.30;99.90;;;;;;5040667;28;20131;-79
2023/07/08 07:13:14;;;;;;;4.72;2.35;;;20.40;99.90;;;;;;5045005;28;20047;-79
2023/07/08 07:15:42;;;;;;;4.63;2.03;;;20.50;99.90;;;;;;5040856;28;20080;-79
2023/07/08 07:18:11;;;;;;;4.45;2.50;;;20.50;99.90;;;;;;5044898;28;20036;-79
2023/07/08 07:20:37;;;;;;;6.95;1.95;;;20.60;99.90;;;;;;5036489;28;20377;-80
2023/07/08 07:23:03;;;;;;;4.30;2.30;;;20.70;99.90;;;;;;5045853;28;20028;-78
2023/07/08 07:25:29;;;;;;;6.25;2.58;;;20.80;99.90;;;;;;5049622;28;20474;-80
2023/07/08 07:27:55;;;;;;;3.40;2.20;;;20.80;99.90;;;;;;5044756;28;20102;-80
2023/07/08 07:30:20;;;;;;;3.28;2.13;;;20.90;99.90;;;;;;5037210;28;20120;-79
2023/07/08 07:32:46;;;;;;;4.90;2.58;;;21.00;99.90;;;;;;5047461;28;20044;-80
2023/07/08 07:35:14;;;;;;;4.07;2.38;;;21.10;99.90;;;;;;5046575;28;20033;-79
2023/07/08 07:37:41;;;;;;;5.40;2.38;;;21.10;99.90;;;;;;5037064;28;20044;-80
2023/07/08 07:40:13;;;;;;;4.20;2.30;;;21.10;99.90;;;;;;5060570;28;20065;-79
2023/07/08 07:42:40;;;;;;;3.25;2.10;;;21.20;99.90;;;;;;5043677;28;20036;-80
2023/07/08 07:45:07;;;;;;;4.20;2.33;;;21.30;99.90;;;;;;5045764;28;20037;-79
2023/07/08 07:47:33;;;;;;;4.47;2.30;;;21.40;99.90;;;;;;5047968;28;20047;-79
2023/07/08 07:49:59;;;;;;;4.68;2.22;;;21.50;99.90;;;;;;5048133;28;20499;-79
2023/07/08 07:52:25;;;;;;;;;;;21.60;99.90;;;;;;5041758;28;20050;-79
2023/07/08 07:54:54;;;;;;;3.97;2.10;;;21.60;99.90;;;;;;5042596;28;20011;-79
2023/07/08 07:57:21;;;;;;;4.93;2.22;;;21.70;99.90;;;;;;5036576;28;20044;-78
2023/07/08 07:59:48;;;;;;;3.58;1.80;;;21.80;99.90;;;;;;5045014;28;20119;-80
2023/07/08 08:02:15;;;;;;;5.68;2.20;;;21.90;99.90;;;;;;5039889;28;20040;-79
2023/07/08 08:04:40;;;;;;;4.13;2.00;;;22.00;99.90;;;;;;5042240;28;20527;-79
2023/07/08 08:07:06;;;;;;;;;;;22.10;99.90;;;;;;5053598;28;20046;-79
2023/07/08 08:09:32;;;;;;;3.20;1.90;;;22.10;99.90;;;;;;5051268;28;19959;-81
2023/07/08 08:11:57;;;;;;;3.78;2.08;;;22.20;99.90;;;;;;5037297;28;20048;-79
2023/07/08 08:14:23;;;;;;;;;;;22.20;99.90;;;;;;5048161;28;20362;-79
2023/07/08 08:16:49;;;;;;;4.13;1.90;;;22.30;99.90;;;;;;5047886;28;19971;-79
2023/07/08 08:19:14;;;;;;;;;;;22.40;99.90;;;;;;5048480;28;20387;-79
2023/07/08 08:21:42;;;;;;;3.22;2.10;;;22.40;99.90;;;;;;5048483;28;19973;-81
2023/07/08 08:24:08;;;;;;;4.57;2.30;;;22.50;99.90;;;;;;5047183;28;20096;-79
2023/07/08 08:26:33;;;;;;;;;;;22.60;99.90;;;;;;5038868;28;20034;-79
2023/07/08 08:28:59;;;;;;;4.50;2.03;;;22.70;99.90;;;;;;5038601;28;19963;-79
2023/07/08 08:31:24;;;;;;;;;;;22.70;99.90;;;;;;5036687;28;20119;-81
2023/07/08 08:33:53;;;;;;;3.45;2.38;;;22.80;99.90;;;;;;5037718;28;20299;-80
2023/07/08 08:36:20;;;;;;;3.95;2.15;;;22.90;99.90;;;;;;5045930;28;20043;-81
2023/07/08 08:38:47;;;;;;;3.85;1.90;;;22.90;99.90;;;;;;5028596;28;20462;-78
2023/07/08 08:41:14;;;;;;;;;;;23.10;99.90;;;;;;5039202;28;20102;-80
2023/07/08 08:43:42;;;;;;;5.50;2.17;;;23.20;99.90;;;;;;5038893;28;20023;-80
2023/07/08 08:46:34;;;;;;;5.18;2.25;;;23.30;99.90;;;;;;5038942;28;20128;-79
2023/07/08 08:49:13;;;;;;;3.45;2.20;;;23.30;99.90;;;;;;5038978;28;20040;-79
2023/07/08 08:51:40;;;;;;;4.32;2.17;;;23.50;99.90;;;;;;5044710;28;20513;-80
2023/07/08 08:54:08;;;;;;;3.75;2.60;;;23.50;99.90;;;;;;5041095;28;20132;-80
2023/07/08 08:57:04;;;;;;;6.07;2.15;;;23.60;99.90;;;;;;5035654;28;20037;-79
2023/07/08 08:59:53;;;;;;;5.45;2.15;;;23.80;99.90;;;;;;5030185;28;20047;-80
2023/07/08 09:02:25;;;;;;;3.17;2.17;;;23.90;99.90;;;;;;5041657;28;20302;-79
2023/07/08 09:04:51;;;;;;;4.05;2.40;;;24.00;99.90;;;;;;5044657;28;20036;-80
2023/07/08 09:07:18;;;;;;;;;;;24.20;99.90;;;;;;5041217;28;20389;-80
2023/07/08 09:10:24;;;;;;;3.08;1.90;;;24.30;99.90;;;;;;5046076;28;19923;-81
2023/07/08 09:12:53;;;;;;;3.15;1.90;;;24.40;99.90;;;;;;5021043;28;20121;-80
2023/07/08 09:15:19;;;;;;;4.50;2.00;;;24.60;99.90;;;;;;5047501;28;20086;-80
2023/07/08 09:17:45;;;;;;;4.85;2.53;;;24.60;99.90;;;;;;5051587;28;20398;-79
2023/07/08 09:20:28;;;;;;;8.25;2.40;;;24.80;99.90;;;;;;5050758;28;20290;-81
2023/07/08 09:23:18;;;;;;;3.50;2.10;;;24.90;99.90;;;;;;5039762;28;20044;-79
2023/07/08 09:25:54;;;;;;;5.30;2.58;;;24.90;99.90;;;;;;5039545;28;20044;-81
2023/07/08 09:28:20;;;;;;;4.32;2.17;;;25.10;99.90;;;;;;5039544;28;20048;-81
2023/07/08 09:30:53;;;;;;;4.63;1.98;;;25.20;99.90;;;;;;5046253;28;20407;-81
2023/07/08 09:33:19;;;;;;;6.43;2.00;;;25.40;99.90;;;;;;5042751;28;20036;-79
2023/07/08 09:35:47;;;;;;;4.88;2.40;;;25.40;99.90;;;;;;5043687;28;20072;-79
2023/07/08 09:38:16;;;;;;;4.53;2.78;;;25.60;99.90;;;;;;5049244;28;20043;-80
2023/07/08 09:40:48;;;;;;;4.18;2.58;;;25.70;99.90;;;;;;5051879;28;20298;-81
2023/07/08 09:43:36;;;;;;;5.03;2.35;;;25.80;99.90;;;;;;5050014;28;20413;-80
2023/07/08 09:46:02;;;;;;;4.30;2.20;;;25.90;99.90;;;;;;5052227;28;20128;-79
2023/07/08 09:48:34;;;;;;;6.47;3.15;;;26.00;99.90;;;;;;5046438;28;20044;-79
2023/07/08 09:51:00;;;;;;;5.07;2.38;;;26.10;99.90;;;;;;5046953;28;20039;-79
2023/07/08 09:53:27;;;;;;;5.18;2.30;;;26.20;99.90;;;;;;5045947;28;20036;-79
2023/07/08 09:55:56;;;;;;;5.28;2.50;;;26.30;99.90;;;;;;5038681;28;20373;-77
2023/07/08 09:58:37;;;;;;;4.60;2.22;;;26.40;99.90;;;;;;5042098;28;20055;-80
2023/07/08 10:01:18;;;;;;;3.30;1.95;;;26.50;99.90;;;;;;5049018;28;20524;-82
2023/07/08 10:03:43;;;;;;;4.15;2.40;;;26.60;99.90;;;;;;5046396;28;20036;-79
2023/07/08 10:06:25;;;;;;;5.30;2.42;;;26.60;99.90;;;;;;5049047;28;20048;-80
2023/07/08 10:08:54;;;;;;;5.38;2.35;;;26.70;99.90;;;;;;5059411;28;20135;-80
2023/07/08 10:11:30;;;;;;;4.35;2.67;;;26.80;99.90;;;;;;5051980;28;20309;-78
2023/07/08 10:14:01;;;;;;;6.00;2.10;;;26.90;99.90;;;;;;5053475;28;20068;-81
2023/07/08 10:16:32;;;;;;;5.53;2.30;;;27.00;99.90;;;;;;5044089;28;20063;-80
2023/07/08 10:18:58;;;;;;;3.65;2.00;;;27.10;99.90;;;;;;5051794;28;20043;-80
2023/07/08 10:21:53;;;;;;;4.65;2.08;;;27.20;99.90;;;;;;5051780;28;20490;-82
2023/07/08 10:24:36;;;;;;;5.85;2.38;;;27.30;99.90;;;;;;5047030;28;20213;-80
2023/07/08 10:27:20;;;;;;;5.45;2.25;;;27.40;99.90;;;;;;5045952;28;20044;-79
2023/07/08 10:30:05;;;;;;;3.55;2.03;;;27.40;99.90;;;;;;5051112;28;20072;-80
2023/07/08 10:32:55;;;;;;;3.63;2.30;;;27.50;99.90;;;;;;5067764;28;20112;-78
2023/07/08 10:35:21;;;;;;;5.97;2.17;;;27.60;99.90;;;;;;5057074;28;20118;-80
2023/07/08 10:38:28;;;;;;;4.72;2.42;;;27.60;99.90;;;;;;5059019;28;20064;-80
2023/07/08 10:41:21;;;;;;;3.00;2.20;;;27.80;99.90;;;;;;5069038;28;20127;-80
2023/07/08 10:43:56;;;;;;;3.80;2.17;;;27.80;99.90;;;;;;5013326;28;20731;-80
2023/07/08 10:46:43;;;;;;;5.55;2.22;;;27.90;99.90;;;;;;5044370;28;20422;-81
2023/07/08 10:49:20;;;;;;;4.50;2.35;;;28.00;99.90;;;;;;5052204;28;20074;-80
2023/07/08 10:51:52;;;;;;;6.57;2.35;;;28.20;99.90;;;;;;5056718;28;20097;-80
2023/07/08 10:54:36;;;;;;;3.22;2.10;;;28.20;99.70;;;;;;5049071;28;20040;-82
2023/07/08 10:57:40;;;;;;;3.95;2.08;;;28.30;99.20;;;;;;5054859;28;20558;-80
2023/07/08 11:00:15;;;;;;;2.95;2.05;;;28.40;98.60;;;;;;5035675;28;20511;-82
2023/07/08 11:02:41;;;;;;;5.45;2.10;;;28.50;98.40;;;;;;5048311;28;20076;-81
2023/07/08 11:05:25;;;;;;;3.97;2.15;;;28.60;97.90;;;;;;5055215;28;20079;-82
2023/07/08 11:07:59;;;;;;;3.72;2.25;;;28.70;97.70;;;;;;5051304;28;20100;-81
2023/07/08 11:10:42;;;;;;;4.47;2.20;;;28.80;97.70;;;;;;5053577;28;20613;-80
2023/07/08 11:13:19;;;;;;;4.05;2.08;;;28.90;97.40;;;;;;5047572;28;20632;-80
2023/07/08 11:16:03;;;;;;;4.07;2.50;;;29.00;96.80;;;;;;5045711;28;20102;-81
2023/07/08 11:18:28;;;;;;;4.28;2.28;;;29.10;96.00;;;;;;5045714;28;20042;-81
2023/07/08 11:20:57;;;;;;;4.32;2.20;;;29.20;95.70;;;;;;5059083;28;20036;-79
2023/07/08 11:23:31;;;;;;;5.35;3.08;;;29.20;95.30;;;;;;5054950;28;20032;-80
2023/07/08 11:26:12;;;;;;;5.90;2.47;;;29.30;95.60;;;;;;5056365;28;20037;-80
2023/07/08 11:28:38;;;;;;;4.13;2.33;;;29.40;94.70;;;;;;5052363;28;20032;-79
2023/07/08 11:31:05;;;;;;;4.28;2.50;;;29.50;94.00;;;;;;5048954;28;20043;-80
2023/07/08 11:33:32;;;;;;;5.20;2.30;;;29.70;93.80;;;;;;5043762;28;20080;-80
2023/07/08 11:36:00;;;;;;;3.25;2.22;;;29.70;93.80;;;;;;5054570;28;20189;-81
2023/07/08 11:38:26;;;;;;;3.97;2.20;;;29.70;93.80;;;;;;5058326;28;20035;-80
2023/07/08 11:41:04;;;;;;;4.05;2.40;;;29.80;93.80;;;;;;5064574;28;20048;-81
2023/07/08 11:43:42;;;;;;;4.95;2.35;;;29.90;93.50;;;;;;5059836;28;20479;-79
2023/07/08 11:46:19;;;;;;;3.38;2.08;;;30.00;91.60;;;;;;5055125;28;20048;-80
2023/07/08 11:48:51;;;;;;;3.40;2.33;;;30.10;91.60;;;;;;5045812;28;20042;-81
2023/07/08 11:51:29;;;;;;;4.55;2.42;;;30.20;90.20;;;;;;5058407;28;20075;-80
2023/07/08 11:54:01;;;;;;;3.65;2.22;;;30.30;87.70;;;;;;5055644;28;20074;-80
2023/07/08 11:56:27;;;;;;;4.55;2.95;;;30.40;88.00;;;;;;5042097;28;20036;-82
2023/07/08 11:59:05;;;;;;;4.47;2.50;;;30.40;87.10;;;;;;5053851;28;20051;-81
2023/07/08 12:01:39;;;;;;;5.78;2.60;;;30.50;85.90;;;;;;5058476;28;20039;-81
2023/07/08 12:04:08;;;;;;;7.93;2.45;;;30.60;85.60;;;;;;5054152;28;20131;-80
2023/07/08 12:06:36;;;;;;;5.72;2.55;;;30.70;84.40;;;;;;5048307;28;20067;-78
2023/07/08 12:09:30;;;;;;;6.72;2.67;;;30.70;83.30;;;;;;5051825;28;20048;-81
2023/07/08 12:12:05;;;;;;;5.22;2.35;;;30.80;83.10;;;;;;5042038;28;20044;-81
2023/07/08 12:14:32;;;;;;;3.08;2.15;;;30.90;82.60;;;;;;5082149;28;20080;-81
2023/07/08 12:16:57;;;;;;;3.60;2.55;;;30.90;82.30;;;;;;5048392;28;20052;-80
2023/07/08 12:19:31;;;;;;;3.72;2.50;;;30.90;83.10;;;;;;5052093;28;20035;-80
2023/07/08 12:21:57;;;;;;;3.40;2.08;;;31.00;83.40;;;;;;5052175;28;20181;-79
2023/07/08 12:24:26;;;;;;;5.32;2.38;;;31.10;83.60;;;;;;5057293;28;20498;-81
2023/07/08 12:26:52;;;;;;;3.95;2.67;;;31.20;82.70;;;;;;5047719;28;20649;-80
2023/07/08 12:29:18;;;;;;;3.45;2.20;;;31.30;81.60;;;;;;5071701;28;20071;-83
2023/07/08 12:31:44;;;;;;;4.07;2.30;;;31.40;80.00;;;;;;5047644;28;20052;-81
2023/07/08 12:34:13;;;;;;;3.80;2.15;;;31.50;79.70;;;;;;5057282;28;20052;-80
2023/07/08 12:36:41;;;;;;;5.00;2.42;;;31.50;79.90;;;;;;5042951;28;20040;-81
2023/07/08 12:39:11;;;;;;;7.15;2.83;;;31.60;79.50;;;;;;5047918;28;20419;-80
2023/07/08 12:41:37;;;;;;;4.70;2.35;;;31.70;79.70;;;;;;5056711;28;20141;-80
2023/07/08 12:44:14;;;;;;;4.78;2.85;;;31.70;79.70;;;;;;5057869;28;20486;-80
2023/07/08 12:46:40;;;;;;;6.10;2.53;;;31.70;79.70;;;;;;5045684;28;20033;-80
2023/07/08 12:49:08;;;;;;;3.95;2.35;;;31.80;80.00;;;;;;5048923;28;20411;-82
2023/07/08 12:51:36;;;;;;;5.45;2.55;;;31.80;79.00;;;;;;5054870;28;20039;-81
2023/07/08 12:54:01;;;;;;;4.18;2.70;;;31.90;79.10;;;;;;5050898;28;20051;-79
2023/07/08 12:56:27;;;;;;;4.93;3.20;;;32.00;79.50;;;;;;5048657;28;20040;-80
2023/07/08 12:58:56;;;;;;;5.45;2.50;;;32.10;78.90;;;;;;5051671;28;20036;-80
2023/07/08 13:01:26;;;;;;;4.90;2.58;;;32.10;77.70;;;;;;5054192;28;20042;-80